createdAt,value
2023-04-02T00:01:48.041Z,8.02
2023-04-02T00:04:22.090Z,7.30
2023-04-02T00:06:56.778Z,8.00
2023-04-02T00:09:27.638Z,7.43
2023-04-02T00:11:55.874Z,7.88
2023-04-02T00:14:28.428Z,7.97
2023-04-02T00:16:56.844Z,8.32
2023-04-02T00:19:26.288Z,8.63
2023-04-02T00:21:53.946Z,7.63
2023-04-02T00:24:22.218Z,7.95
2023-04-02T00:26:51.135Z,8.63
2023-04-02T00:29:19.180Z,7.28
2023-04-02T00:31:48.328Z,8.70
2023-04-02T00:34:18.962Z,8.13
2023-04-02T00:36:48.035Z,7.63
2023-04-02T00:39:18.837Z,7.80
2023-04-02T00:41:49.577Z,7.35
2023-04-02T00:44:21.544Z,7.75
2023-04-02T00:46:49.937Z,7.57
2023-04-02T00:49:27.732Z,7.90
2023-04-02T00:51:59.752Z,7.63
2023-04-02T00:54:28.547Z,7.88
2023-04-02T00:56:58.202Z,8.05
2023-04-02T00:59:30.745Z,8.17
2023-04-02T01:02:01.819Z,7.80
2023-04-02T01:04:36.615Z,8.88
2023-04-02T01:07:06.682Z,8.13
2023-04-02T01:09:39.933Z,8.70
2023-04-02T01:12:33.580Z,7.60
2023-04-02T01:15:00.845Z,8.75
2023-04-02T01:17:48.901Z,8.50
2023-04-02T01:20:25.404Z,7.85
2023-04-02T01:22:58.845Z,8.32
2023-04-02T01:25:30.294Z,8.13
2023-04-02T01:28:19.736Z,7.55
2023-04-02T01:30:52.834Z,7.22
2023-04-02T01:33:22.482Z,7.28
2023-04-02T01:35:52.119Z,8.20
2023-04-02T01:38:23.881Z,8.10
2023-04-02T01:40:55.281Z,7.30
2023-04-02T01:43:36.278Z,8.32
2023-04-02T01:46:33.101Z,7.43
2023-04-02T01:49:05.135Z,7.80
2023-04-02T01:51:33.977Z,7.50
2023-04-02T01:54:06.056Z,7.68
2023-04-02T01:56:33.415Z,7.47
2023-04-02T01:59:02.714Z,7.65
2023-04-02T02:01:52.089Z,6.72
2023-04-02T02:04:19.787Z,7.23
2023-04-02T02:06:47.816Z,7.47
2023-04-02T02:09:23.067Z,7.53
2023-04-02T02:11:51.411Z,6.65
2023-04-02T02:14:20.723Z,6.85
2023-04-02T02:16:48.454Z,7.23
2023-04-02T02:19:21.913Z,6.88
2023-04-02T02:22:04.203Z,7.00
2023-04-02T02:24:33.181Z,6.80
2023-04-02T02:27:26.934Z,6.80
2023-04-02T02:30:07.476Z,6.30
2023-04-02T02:32:37.223Z,6.18
2023-04-02T02:35:09.610Z,7.50
2023-04-02T02:37:40.733Z,6.20
2023-04-02T02:40:12.121Z,6.47
2023-04-02T02:42:40.981Z,6.97
2023-04-02T02:45:13.997Z,6.47
2023-04-02T02:47:43.005Z,6.70
2023-04-02T02:50:26.386Z,6.45
2023-04-02T02:52:55.782Z,7.18
2023-04-02T02:55:32.811Z,6.70
2023-04-02T02:58:15.640Z,5.97
2023-04-02T03:00:56.524Z,6.40
2023-04-02T03:03:27.479Z,6.38
2023-04-02T03:06:02.145Z,6.57
2023-04-02T03:08:32.573Z,6.30
2023-04-02T03:11:19.718Z,6.00
2023-04-02T03:13:49.552Z,6.53
2023-04-02T03:16:23.139Z,6.03
2023-04-02T03:18:55.106Z,7.22
2023-04-02T03:21:29.172Z,6.17
2023-04-02T03:24:17.779Z,5.90
2023-04-02T03:26:49.637Z,7.05
2023-04-02T03:29:16.961Z,6.22
2023-04-02T03:32:04.275Z,6.30
2023-04-02T03:34:37.829Z,5.60
2023-04-02T03:37:05.785Z,6.13
2023-04-02T03:39:42.415Z,6.00
2023-04-02T03:42:30.190Z,6.50
2023-04-02T03:45:05.976Z,6.43
2023-04-02T03:47:37.941Z,6.63
2023-04-02T03:50:12.730Z,5.60
2023-04-02T03:52:41.010Z,6.60
2023-04-02T03:55:16.000Z,6.10
2023-04-02T03:57:59.018Z,6.65
2023-04-02T04:00:43.974Z,5.60
2023-04-02T04:03:11.534Z,6.70
2023-04-02T04:05:45.956Z,6.28
2023-04-02T04:08:16.029Z,5.68
2023-04-02T04:10:43.672Z,6.72
2023-04-02T04:13:16.272Z,5.90
2023-04-02T04:15:46.448Z,6.70
2023-04-02T04:18:24.221Z,6.10
2023-04-02T04:20:57.307Z,5.30
2023-04-02T04:23:32.736Z,5.95
2023-04-02T04:26:24.695Z,6.00
2023-04-02T04:29:09.755Z,6.22
2023-04-02T04:31:55.960Z,6.20
2023-04-02T04:34:46.522Z,5.57
2023-04-02T04:37:21.734Z,6.70
2023-04-02T04:39:53.156Z,6.20
2023-04-02T04:42:22.341Z,5.43
2023-04-02T04:45:09.897Z,5.70
2023-04-02T04:47:40.411Z,5.57
2023-04-02T04:50:31.150Z,5.75
2023-04-02T04:53:05.349Z,4.87
2023-04-02T04:55:38.346Z,5.18
2023-04-02T04:58:14.872Z,5.55
2023-04-02T05:00:55.952Z,5.03
2023-04-02T05:03:43.466Z,5.75
2023-04-02T05:06:26.362Z,5.40
2023-04-02T05:08:56.428Z,5.43
2023-04-02T05:11:31.426Z,5.82
2023-04-02T05:14:01.434Z,5.40
2023-04-02T05:16:46.124Z,5.53
2023-04-02T05:19:17.614Z,5.43
2023-04-02T05:22:04.740Z,4.93
2023-04-02T05:24:52.517Z,5.25
2023-04-02T05:27:26.029Z,5.05
2023-04-02T05:30:00.227Z,5.15
2023-04-02T05:32:32.902Z,4.77
2023-04-02T05:35:00.394Z,4.60
2023-04-02T05:37:29.687Z,4.65
2023-04-02T05:40:00.700Z,4.47
2023-04-02T05:42:29.630Z,5.40
2023-04-02T05:45:02.095Z,4.07
2023-04-02T05:47:31.916Z,4.10
2023-04-02T05:50:08.635Z,3.80
2023-04-02T05:52:44.577Z,4.30
2023-04-02T05:55:12.361Z,4.28
2023-04-02T05:57:51.258Z,3.87
2023-04-02T06:00:32.888Z,3.53
2023-04-02T06:03:07.439Z,3.70
2023-04-02T06:05:38.789Z,3.63
2023-04-02T06:08:09.083Z,3.58
2023-04-02T06:10:38.790Z,4.20
2023-04-02T06:13:12.969Z,3.50
2023-04-02T06:15:43.156Z,3.38
2023-04-02T06:18:16.750Z,3.00
2023-04-02T06:20:44.909Z,3.10
2023-04-02T06:23:24.473Z,3.23
2023-04-02T06:26:04.278Z,3.50
2023-04-02T06:28:36.064Z,4.07
2023-04-02T06:31:08.690Z,3.20
2023-04-02T06:33:37.607Z,4.05
2023-04-02T06:36:05.466Z,3.50
2023-04-02T06:38:36.229Z,3.13
2023-04-02T06:41:06.129Z,3.50
2023-04-02T06:43:48.289Z,4.05
2023-04-02T06:46:49.044Z,3.38
2023-04-02T06:49:23.561Z,5.63
2023-04-02T06:51:55.617Z,4.07
2023-04-02T06:54:22.998Z,4.07
2023-04-02T06:56:59.018Z,3.85
2023-04-02T06:59:31.266Z,2.97
2023-04-02T07:02:03.826Z,3.63
2023-04-02T07:04:31.934Z,3.67
2023-04-02T07:06:59.620Z,4.20
2023-04-02T07:09:30.902Z,3.58
2023-04-02T07:12:01.042Z,4.25
2023-04-02T07:14:28.459Z,4.00
2023-04-02T07:16:56.038Z,3.85
2023-04-02T07:19:23.757Z,4.00
2023-04-02T07:21:57.210Z,5.50
2023-04-02T07:24:27.748Z,5.18
2023-04-02T07:26:55.047Z,3.73
2023-04-02T07:29:22.318Z,3.90
2023-04-02T07:31:49.695Z,5.20
2023-04-02T07:34:18.461Z,4.70
2023-04-02T07:36:45.910Z,5.35
2023-04-02T07:39:13.226Z,4.97
2023-04-02T07:41:53.629Z,3.67
2023-04-02T07:44:20.961Z,6.13
2023-04-02T07:46:48.412Z,3.97
2023-04-02T07:49:15.832Z,4.53
2023-04-02T07:51:43.397Z,4.13
2023-04-02T07:54:11.214Z,4.10
2023-04-02T07:56:38.539Z,4.40
2023-04-02T07:59:06.257Z,3.85
2023-04-02T08:01:35.537Z,3.78
2023-04-02T08:04:03.914Z,3.63
2023-04-02T08:06:31.521Z,3.47
2023-04-02T08:08:59.397Z,3.47
2023-04-02T08:11:27.082Z,3.88
2023-04-02T08:13:54.364Z,3.33
2023-04-02T08:16:23.478Z,3.47
2023-04-02T08:18:53.364Z,3.58
2023-04-02T08:21:20.718Z,3.63
2023-04-02T08:23:48.016Z,3.60
2023-04-02T08:26:18.473Z,3.63
2023-04-02T08:28:45.853Z,3.47
2023-04-02T08:31:13.423Z,3.13
2023-04-02T08:33:40.948Z,3.65
2023-04-02T08:36:08.326Z,3.42
2023-04-02T08:38:35.736Z,3.50
2023-04-02T08:41:03.624Z,4.03
2023-04-02T08:43:40.840Z,3.17
2023-04-02T08:46:08.217Z,3.42
2023-04-02T08:48:37.275Z,3.42
2023-04-02T08:51:05.986Z,4.10
2023-04-02T08:53:35.534Z,3.40
2023-04-02T08:56:17.616Z,3.13
2023-04-02T08:58:49.143Z,3.15
2023-04-02T09:01:16.532Z,3.08
2023-04-02T09:03:46.367Z,3.63
2023-04-02T09:06:16.664Z,3.33
2023-04-02T09:08:44.990Z,3.45
2023-04-02T09:11:17.229Z,3.60
2023-04-02T09:13:46.730Z,5.00
2023-04-02T09:16:15.963Z,4.45
2023-04-02T09:18:44.903Z,4.73
2023-04-02T09:21:21.818Z,4.35
2023-04-02T09:23:49.827Z,3.88
2023-04-02T09:26:22.145Z,4.30
2023-04-02T09:28:51.385Z,4.32
2023-04-02T09:31:31.333Z,4.37
2023-04-02T09:33:58.549Z,4.13
2023-04-02T09:36:35.325Z,4.70
2023-04-02T09:39:06.928Z,4.00
2023-04-02T09:41:36.857Z,5.63
2023-04-02T09:44:14.587Z,3.93
2023-04-02T09:46:48.981Z,3.97
2023-04-02T09:49:17.993Z,4.28
2023-04-02T09:51:45.392Z,3.92
2023-04-02T09:54:16.692Z,3.20
2023-04-02T09:57:01.050Z,3.10
2023-04-02T09:59:28.529Z,2.90
2023-04-02T10:01:58.620Z,3.55
2023-04-02T10:04:37.088Z,2.72
2023-04-02T10:07:06.481Z,3.13
2023-04-02T10:09:36.420Z,3.00
2023-04-02T10:12:06.609Z,2.55
2023-04-02T10:14:43.400Z,3.28
2023-04-02T10:17:17.002Z,3.30
2023-04-02T10:19:49.097Z,3.13
2023-04-02T10:22:17.875Z,2.50
2023-04-02T10:24:45.403Z,2.30
2023-04-02T10:27:17.140Z,2.42
2023-04-02T10:30:08.491Z,5.15
2023-04-02T10:32:36.045Z,3.60
2023-04-02T10:35:22.477Z,2.17
2023-04-02T10:37:54.307Z,2.08
2023-04-02T10:40:40.458Z,2.35
2023-04-02T10:43:27.432Z,2.72
2023-04-02T10:46:13.339Z,2.42
2023-04-02T10:48:52.493Z,2.77
2023-04-02T10:51:19.730Z,2.28
2023-04-02T10:53:55.431Z,2.30
2023-04-02T10:56:23.891Z,1.95
2023-04-02T10:59:14.211Z,1.70
2023-04-02T11:01:42.316Z,1.47
2023-04-02T11:04:17.097Z,1.65
2023-04-02T11:06:50.017Z,1.45
2023-04-02T11:09:22.624Z,2.22
2023-04-02T11:11:51.443Z,1.40
2023-04-02T11:14:24.639Z,1.77
2023-04-02T11:16:52.837Z,1.73
2023-04-02T11:19:20.139Z,1.25
2023-04-02T11:22:00.032Z,1.08
2023-04-02T11:24:33.980Z,1.13
2023-04-02T11:27:10.816Z,1.50
2023-04-02T11:29:42.089Z,1.20
2023-04-02T11:32:15.144Z,1.10
2023-04-02T11:34:43.012Z,1.25
2023-04-02T11:37:29.077Z,1.27
2023-04-02T11:39:58.367Z,1.10
2023-04-02T11:42:33.606Z,1.27
2023-04-02T11:45:20.907Z,1.20
2023-04-02T11:48:06.111Z,1.30
2023-04-02T11:50:35.577Z,1.40
2023-04-02T11:53:03.100Z,1.00
2023-04-02T11:55:34.797Z,1.35
2023-04-02T11:58:02.510Z,1.10
2023-04-02T12:00:48.602Z,1.60
2023-04-02T12:03:16.246Z,1.30
2023-04-02T12:05:50.865Z,1.10
2023-04-02T12:08:29.664Z,1.23
2023-04-02T12:10:59.077Z,1.65
2023-04-02T12:13:41.703Z,1.02
2023-04-02T12:16:13.167Z,0.95
2023-04-02T12:18:47.857Z,4.43
2023-04-02T12:21:16.178Z,1.95
2023-04-02T12:23:45.730Z,1.20
2023-04-02T12:26:27.119Z,1.10
2023-04-02T12:28:56.242Z,0.90
2023-04-02T12:31:25.207Z,1.20
2023-04-02T12:33:53.630Z,0.95
2023-04-02T12:36:22.402Z,1.00
2023-04-02T12:38:49.787Z,1.00
2023-04-02T12:41:27.047Z,1.30
2023-04-02T12:43:58.759Z,1.10
2023-04-02T12:46:26.774Z,0.80
2023-04-02T12:49:02.009Z,1.10
2023-04-02T12:51:29.393Z,1.10
2023-04-02T12:53:57.219Z,1.00
2023-04-02T12:56:24.801Z,1.10
2023-04-02T12:58:56.191Z,1.23
2023-04-02T13:01:27.539Z,1.40
2023-04-02T13:04:14.916Z,1.27
2023-04-02T13:06:48.064Z,1.30
2023-04-02T13:09:35.836Z,1.03
2023-04-02T13:12:03.662Z,1.20
2023-04-02T13:14:31.442Z,1.20
2023-04-02T13:16:58.697Z,1.40
2023-04-02T13:19:26.137Z,1.48
2023-04-02T13:21:53.932Z,3.10
2023-04-02T13:24:22.616Z,1.52
2023-04-02T13:26:50.767Z,1.27
2023-04-02T13:29:26.495Z,1.13
2023-04-02T13:31:55.698Z,1.35
2023-04-02T13:34:23.244Z,1.23
2023-04-02T13:36:50.702Z,1.00
2023-04-02T13:39:19.362Z,1.30
2023-04-02T13:41:59.896Z,1.35
2023-04-02T13:44:28.610Z,1.30
2023-04-02T13:46:56.801Z,0.90
2023-04-02T13:49:25.287Z,1.20
2023-04-02T13:52:00.658Z,1.20
2023-04-02T13:54:33.614Z,1.20
2023-04-02T13:57:01.365Z,1.30
2023-04-02T13:59:28.776Z,4.77
2023-04-02T14:01:58.574Z,2.67
2023-04-02T14:04:28.079Z,1.95
2023-04-02T14:06:58.666Z,1.70
2023-04-02T14:09:44.701Z,1.48
2023-04-02T14:12:24.737Z,1.30
2023-04-02T14:14:52.401Z,1.20
2023-04-02T14:17:30.467Z,1.55
2023-04-02T14:20:17.284Z,1.60
2023-04-02T14:22:59.998Z,1.33
2023-04-02T14:25:36.733Z,1.50
2023-04-02T14:28:04.276Z,2.10
2023-04-02T14:30:37.636Z,1.70
2023-04-02T14:33:11.506Z,1.60
2023-04-02T14:35:42.390Z,1.73
2023-04-02T14:38:10.379Z,5.47
2023-04-02T14:40:37.866Z,2.80
2023-04-02T14:43:16.371Z,2.08
2023-04-02T14:45:49.801Z,1.52
2023-04-02T14:48:22.142Z,1.77
2023-04-02T14:50:50.434Z,1.53
2023-04-02T14:53:44.184Z,1.60
2023-04-02T14:56:13.027Z,2.03
2023-04-02T14:58:43.263Z,2.25
2023-04-02T15:01:13.987Z,1.92
2023-04-02T15:03:48.720Z,1.70
2023-04-02T15:06:19.186Z,1.80
2023-04-02T15:08:58.627Z,1.60
2023-04-02T15:11:38.559Z,1.63
2023-04-02T15:14:15.893Z,1.83
2023-04-02T15:16:44.255Z,1.80
2023-04-02T15:19:16.116Z,1.45
2023-04-02T15:22:07.314Z,1.85
2023-04-02T15:24:55.208Z,1.42
2023-04-02T15:27:25.374Z,1.60
2023-04-02T15:30:12.350Z,1.47
2023-04-02T15:32:40.636Z,1.80
2023-04-02T15:35:08.304Z,1.80
2023-04-02T15:37:35.581Z,1.90
2023-04-02T15:40:02.978Z,1.70
2023-04-02T15:42:31.785Z,1.40
2023-04-02T15:45:08.818Z,3.40
2023-04-02T15:47:42.233Z,2.10
2023-04-02T15:50:29.766Z,1.70
2023-04-02T15:53:00.313Z,4.45
2023-04-02T15:55:35.687Z,1.83
2023-04-02T15:58:11.925Z,1.77
2023-04-02T16:00:45.909Z,1.83
2023-04-02T16:03:32.402Z,1.75
2023-04-02T16:06:12.933Z,1.70
2023-04-02T16:08:40.243Z,2.00
2023-04-02T16:11:11.439Z,2.03
2023-04-02T16:13:39.573Z,1.45
2023-04-02T16:16:09.951Z,1.77
2023-04-02T16:18:56.758Z,4.13
2023-04-02T16:21:25.677Z,2.00
2023-04-02T16:23:52.999Z,2.00
2023-04-02T16:26:39.283Z,1.63
2023-04-02T16:29:09.655Z,1.75
2023-04-02T16:31:47.783Z,1.92
2023-04-02T16:34:19.015Z,1.30
2023-04-02T16:36:52.177Z,1.58
2023-04-02T16:39:19.435Z,1.52
2023-04-02T16:41:55.904Z,1.50
2023-04-02T16:44:23.239Z,2.70
2023-04-02T16:46:53.620Z,1.70
2023-04-02T16:49:24.180Z,1.83
2023-04-02T16:52:07.967Z,1.67
2023-04-02T16:54:45.920Z,1.60
2023-04-02T16:57:30.886Z,2.30
2023-04-02T17:00:01.397Z,1.43
2023-04-02T17:02:43.966Z,1.30
2023-04-02T17:05:17.346Z,1.55
2023-04-02T17:07:50.609Z,1.80
2023-04-02T17:10:19.033Z,1.40
2023-04-02T17:12:47.507Z,1.83
2023-04-02T17:15:28.422Z,1.67
2023-04-02T17:17:59.702Z,1.80
2023-04-02T17:20:27.165Z,1.88
2023-04-02T17:22:55.052Z,1.92
2023-04-02T17:25:25.418Z,2.10
2023-04-02T17:27:55.003Z,2.17
2023-04-02T17:30:43.030Z,2.90
2023-04-02T17:33:14.657Z,1.40
2023-04-02T17:36:00.525Z,2.20
2023-04-02T17:38:34.206Z,2.00
2023-04-02T17:41:01.514Z,2.00
2023-04-02T17:43:48.771Z,1.65
2023-04-02T17:46:25.630Z,1.95
2023-04-02T17:49:13.147Z,1.60
2023-04-02T17:51:43.547Z,1.63
2023-04-02T17:54:32.718Z,2.20
2023-04-02T17:57:19.144Z,2.13
2023-04-02T17:59:56.483Z,2.45
2023-04-02T18:02:33.106Z,2.30
2023-04-02T18:05:19.280Z,2.17
2023-04-02T18:07:54.940Z,2.35
2023-04-02T18:10:31.478Z,7.93
2023-04-02T18:13:07.205Z,5.47
2023-04-02T18:15:43.828Z,5.95
2023-04-02T18:18:24.987Z,7.70
2023-04-02T18:20:52.382Z,2.78
2023-04-02T18:23:27.522Z,2.47
2023-04-02T18:26:00.728Z,1.80
2023-04-02T18:28:31.039Z,3.78
2023-04-02T18:31:07.688Z,5.37
2023-04-02T18:33:43.836Z,6.93
2023-04-02T18:36:14.125Z,8.40
2023-04-02T18:38:48.199Z,2.50
2023-04-02T18:41:21.742Z,3.92
2023-04-02T18:43:57.901Z,2.97
2023-04-02T18:46:38.228Z,5.25
2023-04-02T18:49:24.778Z,4.28
2023-04-02T18:51:55.749Z,12.95
2023-04-02T18:54:23.012Z,7.75
2023-04-02T18:56:50.377Z,4.73
2023-04-02T18:59:36.573Z,4.50
2023-04-02T19:02:27.284Z,2.53
2023-04-02T19:04:59.998Z,4.35
2023-04-02T19:07:30.083Z,10.48
2023-04-02T19:09:59.751Z,6.53
2023-04-02T19:12:27.200Z,4.13
2023-04-02T19:14:57.842Z,4.53
2023-04-02T19:17:28.363Z,2.40
2023-04-02T19:20:14.579Z,2.30
2023-04-02T19:22:41.854Z,2.07
2023-04-02T19:25:17.715Z,2.20
2023-04-02T19:27:51.199Z,1.85
2023-04-02T19:30:24.617Z,2.08
2023-04-02T19:32:51.993Z,2.35
2023-04-02T19:35:29.890Z,1.90
2023-04-02T19:37:57.160Z,1.85
2023-04-02T19:40:36.987Z,1.88
2023-04-02T19:43:04.461Z,1.75
2023-04-02T19:45:42.483Z,2.20
2023-04-02T19:48:15.317Z,1.90
2023-04-02T19:50:42.978Z,1.88
2023-04-02T19:53:10.526Z,2.60
2023-04-02T19:55:38.450Z,2.13
2023-04-02T19:58:17.622Z,2.17
2023-04-02T20:00:46.948Z,2.10
2023-04-02T20:03:14.276Z,7.35
2023-04-02T20:05:41.521Z,2.78
2023-04-02T20:08:10.344Z,2.50
2023-04-02T20:10:38.059Z,1.98
2023-04-02T20:13:05.534Z,2.60
2023-04-02T20:15:32.905Z,2.85
2023-04-02T20:18:00.488Z,3.50
2023-04-02T20:20:28.019Z,2.08
2023-04-02T20:22:55.234Z,2.53
2023-04-02T20:25:22.539Z,1.87
2023-04-02T20:27:49.877Z,2.13
2023-04-02T20:30:17.265Z,2.40
2023-04-02T20:32:45.177Z,2.20
2023-04-02T20:35:12.522Z,2.20
2023-04-02T20:37:41.885Z,2.33
2023-04-02T20:40:10.774Z,1.70
2023-04-02T20:42:38.096Z,1.95
2023-04-02T20:45:06.275Z,1.58
2023-04-02T20:47:33.591Z,2.13
2023-04-02T20:50:01.044Z,1.50
2023-04-02T20:52:30.083Z,1.60
2023-04-02T20:54:57.498Z,2.08
2023-04-02T20:57:26.289Z,1.50
2023-04-02T20:59:54.615Z,1.75
2023-04-02T21:02:21.993Z,1.80
2023-04-02T21:04:49.306Z,1.92
2023-04-02T21:07:16.813Z,1.98
2023-04-02T21:09:44.104Z,4.50
2023-04-02T21:12:12.195Z,2.70
2023-04-02T21:14:40.289Z,1.90
2023-04-02T21:17:07.910Z,3.72
2023-04-02T21:19:35.644Z,2.40
2023-04-02T21:22:03.469Z,1.48
2023-04-02T21:24:30.737Z,1.75
2023-04-02T21:26:57.934Z,1.40
2023-04-02T21:29:25.411Z,1.60
2023-04-02T21:31:52.924Z,2.00
2023-04-02T21:34:20.348Z,1.40
2023-04-02T21:36:48.755Z,1.65
2023-04-02T21:39:23.350Z,1.10
2023-04-02T21:41:51.556Z,1.42
2023-04-02T21:44:21.900Z,1.58
2023-04-02T21:46:51.893Z,1.80
2023-04-02T21:49:22.758Z,1.52
2023-04-02T21:51:51.663Z,1.53
2023-04-02T21:54:19.087Z,1.80
2023-04-02T21:56:46.829Z,2.22
2023-04-02T21:59:14.853Z,1.20
2023-04-02T22:01:46.887Z,2.00
2023-04-02T22:04:19.581Z,1.47
2023-04-02T22:06:47.425Z,1.70
2023-04-02T22:09:18.699Z,1.58
2023-04-02T22:11:47.396Z,1.58
2023-04-02T22:14:15.078Z,1.50
2023-04-02T22:16:43.131Z,1.03
2023-04-02T22:19:12.919Z,1.70
2023-04-02T22:21:40.970Z,1.95
2023-04-02T22:24:09.336Z,1.00
2023-04-02T22:26:36.750Z,1.60
2023-04-02T22:29:04.240Z,1.27
2023-04-02T22:31:33.508Z,1.13
2023-04-02T22:34:01.752Z,1.80
2023-04-02T22:36:29.412Z,1.50
2023-04-02T22:38:57.130Z,1.35
2023-04-02T22:41:27.563Z,1.50
2023-04-02T22:43:56.110Z,1.30
2023-04-02T22:46:23.431Z,1.85
2023-04-02T22:48:51.226Z,1.40
2023-04-02T22:51:19.882Z,1.60
2023-04-02T22:53:47.191Z,1.47
2023-04-02T22:56:15.726Z,1.30
2023-04-02T22:58:43.362Z,1.80
2023-04-02T23:01:13.219Z,1.30
2023-04-02T23:03:40.946Z,1.75
2023-04-02T23:06:10.428Z,1.83
2023-04-02T23:08:38.399Z,1.50
2023-04-02T23:11:07.351Z,1.73
2023-04-02T23:13:35.677Z,1.40
2023-04-02T23:16:03.899Z,1.95
2023-04-02T23:18:35.247Z,2.13
2023-04-02T23:21:02.905Z,1.40
2023-04-02T23:23:30.486Z,2.13
2023-04-02T23:26:04.132Z,1.80
2023-04-02T23:28:31.378Z,1.80
2023-04-02T23:30:59.640Z,1.43
2023-04-02T23:33:26.929Z,1.70
2023-04-02T23:35:54.246Z,2.03
2023-04-02T23:38:21.512Z,2.22
2023-04-02T23:40:48.764Z,2.10
2023-04-02T23:43:15.992Z,1.60
2023-04-02T23:45:47.815Z,1.80
2023-04-02T23:48:15.395Z,1.80
2023-04-02T23:50:42.789Z,1.90
2023-04-02T23:53:10.403Z,2.08
2023-04-02T23:55:37.647Z,1.57
2023-04-02T23:58:05.009Z,1.73
